Terminal Aerodrome Forecast
Issued by NWS Charleston, WV

Home | Current Version | Previous Version | Text Only | Print | Product List | Glossary On
Versions: 1 2 3 4 5 6 7 8 9 10 11 12 13 14 15 16 17 18 19 20 21 22 23 24 25 26 27 28 29 30
000
FTUS41 KRLX 220200 AAA
TAFBKW
TAF AMD
KBKW 220232Z 2203/2224 VRB03KT P6SM BKN040
     FM221100 VRB03KT 4SM BR BKN020
     FM221700 29007KT P6SM BKN040
     FM221800 30007KT P6SM BKN025
     FM222000 30007KT 6SM BR BKN035=

USA.gov is the U.S. government's official web portal to all federal, state and local government web resources and services.